Omega, Oklahoma
Current Conditions -  °F | °C
As of 10:55 PM on Friday 28 Nov 2014 (Local Time) from KJWG Reporting Station
Clear Clear  
Wind Chill: 58°   Ceiling: Unl
Heat Index: 58°   Visibility: 10mi
Dew Point: 44°   Wind: 16mph
Humidity: 60%   Direction: 190°S
Pressure: 29.78"   Gusts: 24mph
Location:  35.87°N, 98.2°W
Report Text: KJWG 290455Z AUTO 19014G21KT 10SM CLR 15/07 A2978 RMK AO2 T01450068
Loading
Personal Weather Stations






























Interactive Weather Map New forecast layout! Learn more

10-Day Weather Forecast

Advertisements
Track Severe Weather on mobile